Time;durP1;ratioP1;P1;durP2;ratioP2;P2;SDS_P1;SDS_P2;PMS_P1;PMS_P2;Temp;Humidity;BMP_temperature;BMP_pressure;BME280_temperature;BME280_humidity;BME280_pressure;Samples;Min_cycle;Max_cycle;Signal;HPM_P1;HPM_P2
2023/06/08 02:00:32;;;;;;;8.20;5.82;;;;;;;;;;4938356;27;20262;-75
2023/06/08 02:03:00;;;;;;;6.15;4.53;;;;;;;;;;4265997;33;20053;-75
2023/06/08 02:05:26;;;;;;;9.60;5.12;;;;;;;;;;4250901;33;20084;-75
2023/06/08 02:07:52;;;;;;;8.55;5.85;;;;;;;;;;4249217;33;20532;-76
2023/06/08 02:10:19;;;;;;;7.53;4.82;;;;;;;;;;4248024;33;20075;-75
2023/06/08 02:12:45;;;;;;;11.73;5.57;;;;;;;;;;4251084;33;20565;-74
2023/06/08 02:15:11;;;;;;;8.48;5.53;;;;;;;;;;4251308;33;20035;-75
2023/06/08 02:17:38;;;;;;;11.00;6.68;;;;;;;;;;4249397;33;20093;-75
2023/06/08 02:20:08;;;;;;;9.75;5.80;;;;;;;;;;4249391;33;20064;-76
2023/06/08 02:22:38;;;;;;;9.35;5.50;;;;;;;;;;4250312;33;20498;-75
2023/06/08 02:25:06;;;;;;;10.10;5.75;;;;;;;;;;4250602;33;20436;-75
2023/06/08 02:27:36;;;;;;;7.75;5.70;;;;;;;;;;4251010;33;20386;-74
2023/06/08 02:30:07;;;;;;;8.45;4.93;;;;;;;;;;4250619;33;20060;-75
2023/06/08 02:32:33;;;;;;;16.20;5.75;;;;;;;;;;4253605;33;20453;-74
2023/06/08 02:35:00;;;;;;;7.90;5.35;;;;;;;;;;4252524;33;20072;-73
2023/06/08 02:37:27;;;;;;;11.63;5.28;;;;;;;;;;4252819;33;20561;-74
2023/06/08 02:39:53;;;;;;;8.00;5.53;;;;;;;;;;4239120;33;20445;-74
2023/06/08 02:42:20;;;;;;;9.65;5.40;;;;;;;;;;4236338;33;20054;-73
2023/06/08 02:44:46;;;;;;;11.98;5.30;;;;;;;;;;4239226;33;20073;-73
2023/06/08 02:47:13;;;;;;;7.20;5.20;;;;;;;;;;4238702;33;20080;-73
2023/06/08 02:49:40;;;;;;;10.60;6.70;;;;;;;;;;4238975;33;20050;-73
2023/06/08 02:52:07;;;;;;;10.90;7.37;;;;;;;;;;4234937;33;20102;-74
2023/06/08 02:54:33;;;;;;;8.57;6.18;;;;;;;;;;4236553;33;20076;-73
2023/06/08 02:57:00;;;;;;;9.88;7.35;;;;;;;;;;4224240;33;20589;-73
2023/06/08 02:59:29;;;;;;;7.78;6.45;;;;;;;;;;4216107;34;20043;-73
2023/06/08 03:01:56;;;;;;;7.47;6.50;;;;;;;;;;4229094;33;20080;-74
2023/06/08 03:04:25;;;;;;;8.70;6.68;;;;;;;;;;4223000;34;20062;-73
2023/06/08 03:06:55;;;;;;;7.65;6.20;;;;;;;;;;4225135;34;20080;-73
2023/06/08 03:09:23;;;;;;;10.10;6.07;;;;;;;;;;4224880;34;20031;-73
2023/06/08 03:11:50;;;;;;;13.85;6.40;;;;;;;;;;4249107;33;20058;-73
2023/06/08 03:14:18;;;;;;;11.85;6.47;;;;;;;;;;4251101;33;20366;-73
2023/06/08 03:16:47;;;;;;;15.90;7.12;;;;;;;;;;4254774;33;20069;-73
2023/06/08 03:19:14;;;;;;;9.85;5.80;;;;;;;;;;4261326;33;20033;-73
2023/06/08 03:21:43;;;;;;;13.70;6.62;;;;;;;;;;4267024;33;20054;-73
2023/06/08 03:24:10;;;;;;;9.73;7.53;;;;;;;;;;4266562;33;20411;-74
2023/06/08 03:26:37;;;;;;;6.93;5.68;;;;;;;;;;4266438;33;20123;-74
2023/06/08 03:29:03;;;;;;;10.65;6.90;;;;;;;;;;4253571;33;20068;-74
2023/06/08 03:31:36;;;;;;;9.68;6.10;;;;;;;;;;4266759;33;20474;-73
2023/06/08 03:34:04;;;;;;;12.52;6.57;;;;;;;;;;4268353;33;20057;-76
2023/06/08 03:36:35;;;;;;;8.80;6.80;;;;;;;;;;4268031;33;20056;-75
2023/06/08 03:39:02;;;;;;;8.25;6.82;;;;;;;;;;4269615;33;20063;-75
2023/06/08 03:41:29;;;;;;;8.43;6.57;;;;;;;;;;4268130;33;20045;-74
2023/06/08 03:43:56;;;;;;;11.98;7.25;;;;;;;;;;4275515;33;20057;-75
2023/06/08 03:46:24;;;;;;;13.23;6.20;;;;;;;;;;4271021;33;20477;-75
2023/06/08 03:48:51;;;;;;;8.30;6.57;;;;;;;;;;4274870;33;20076;-75
2023/06/08 03:51:18;;;;;;;7.95;6.28;;;;;;;;;;4269249;33;20495;-75
2023/06/08 03:53:46;;;;;;;14.77;6.30;;;;;;;;;;4267844;33;20038;-75
2023/06/08 03:56:13;;;;;;;12.32;6.35;;;;;;;;;;4267287;33;20062;-75
2023/06/08 03:58:41;;;;;;;9.18;7.35;;;;;;;;;;4267807;33;20049;-75
2023/06/08 04:01:14;;;;;;;12.10;7.43;;;;;;;;;;4268481;33;20406;-75
2023/06/08 04:03:41;;;;;;;14.63;7.30;;;;;;;;;;4268848;33;20071;-75
2023/06/08 04:06:08;;;;;;;8.77;7.45;;;;;;;;;;4267010;33;20442;-76
2023/06/08 04:08:35;;;;;;;7.95;5.85;;;;;;;;;;4252013;33;20064;-75
2023/06/08 04:11:01;;;;;;;11.68;7.65;;;;;;;;;;4255603;33;20072;-75
2023/06/08 04:13:27;;;;;;;11.73;6.95;;;;;;;;;;4253097;33;20085;-75
2023/06/08 04:15:55;;;;;;;8.68;6.75;;;;;;;;;;4240581;33;20120;-75
2023/06/08 04:18:21;;;;;;;9.63;6.43;;;;;;;;;;4251247;33;20499;-75
2023/06/08 04:20:48;;;;;;;8.40;6.12;;;;;;;;;;4251075;33;20093;-75
2023/06/08 04:23:15;;;;;;;13.82;5.87;;;;;;;;;;4251332;33;20357;-75
2023/06/08 04:25:42;;;;;;;5.95;5.37;;;;;;;;;;4251671;33;20046;-74
2023/06/08 04:28:08;;;;;;;11.77;5.20;;;;;;;;;;4228285;33;20043;-74
2023/06/08 04:30:34;;;;;;;16.02;5.30;;;;;;;;;;4222008;34;20039;-74
2023/06/08 04:33:01;;;;;;;8.48;5.45;;;;;;;;;;4223825;34;20260;-74
2023/06/08 04:35:28;;;;;;;8.27;5.30;;;;;;;;;;4222046;34;20088;-74
2023/06/08 04:37:54;;;;;;;6.18;5.20;;;;;;;;;;4223479;34;20072;-75
2023/06/08 04:40:21;;;;;;;7.28;5.18;;;;;;;;;;4223676;34;20089;-75
2023/06/08 04:42:48;;;;;;;11.40;5.97;;;;;;;;;;4233986;33;20099;-75
2023/06/08 04:45:18;;;;;;;10.98;5.18;;;;;;;;;;4237596;33;20072;-75
2023/06/08 04:47:45;;;;;;;6.90;4.62;;;;;;;;;;4236125;33;20117;-74
2023/06/08 04:50:11;;;;;;;11.68;4.57;;;;;;;;;;4236201;33;20092;-74
2023/06/08 04:52:40;;;;;;;7.32;4.30;;;;;;;;;;4237290;33;20587;-75
2023/06/08 04:55:08;;;;;;;4.85;3.75;;;;;;;;;;4235875;33;20970;-74
2023/06/08 04:57:35;;;;;;;4.10;3.65;;;;;;;;;;4237418;33;20046;-74
2023/06/08 05:00:01;;;;;;;6.28;3.55;;;;;;;;;;4236606;33;20473;-74
2023/06/08 05:02:27;;;;;;;5.25;3.83;;;;;;;;;;4235338;33;20098;-74
2023/06/08 05:04:54;;;;;;;4.68;3.67;;;;;;;;;;4234522;33;20046;-75
2023/06/08 05:07:20;;;;;;;5.78;3.35;;;;;;;;;;4241553;33;20120;-74
2023/06/08 05:09:46;;;;;;;3.72;3.10;;;;;;;;;;4242738;33;20054;-74
2023/06/08 05:12:12;;;;;;;3.05;2.85;;;;;;;;;;4236300;33;20126;-74
2023/06/08 05:14:39;;;;;;;5.05;2.58;;;;;;;;;;4236578;33;20046;-74
2023/06/08 05:17:05;;;;;;;6.07;2.70;;;;;;;;;;4235442;33;20072;-75
2023/06/08 05:19:31;;;;;;;6.22;2.87;;;;;;;;;;4227090;33;20047;-74
2023/06/08 05:21:57;;;;;;;5.93;2.70;;;;;;;;;;4222986;33;20440;-74
2023/06/08 05:24:23;;;;;;;3.58;2.35;;;;;;;;;;4219164;33;20079;-75
2023/06/08 05:26:50;;;;;;;2.65;2.45;;;;;;;;;;4202512;34;20039;-75
2023/06/08 05:29:16;;;;;;;6.90;2.37;;;;;;;;;;4191883;34;20777;-75
2023/06/08 05:31:43;;;;;;;5.55;1.98;;;;;;;;;;4179850;34;20493;-75
2023/06/08 05:34:09;;;;;;;3.03;2.08;;;;;;;;;;4187734;34;20077;-74
2023/06/08 05:36:35;;;;;;;1.95;1.85;;;;;;;;;;4195554;34;20485;-74
2023/06/08 05:39:04;;;;;;;2.37;2.15;;;;;;;;;;4208810;34;20043;-74
2023/06/08 05:41:30;;;;;;;3.72;2.53;;;;;;;;;;4199729;34;20063;-75
2023/06/08 05:43:57;;;;;;;4.60;2.53;;;;;;;;;;4229762;33;20050;-74
2023/06/08 05:46:23;;;;;;;15.88;2.30;;;;;;;;;;4236211;33;20072;-74
2023/06/08 05:48:49;;;;;;;3.83;1.98;;;;;;;;;;4235013;33;20062;-75
2023/06/08 05:51:15;;;;;;;3.67;1.77;;;;;;;;;;4221249;33;20051;-74
2023/06/08 05:53:42;;;;;;;2.17;2.08;;;;;;;;;;4208500;34;20055;-73
2023/06/08 05:56:08;;;;;;;1.90;1.80;;;;;;;;;;4216042;33;20109;-74
2023/06/08 05:58:34;;;;;;;2.28;2.10;;;;;;;;;;4235655;33;20073;-75
2023/06/08 06:01:07;;;;;;;3.70;2.25;;;;;;;;;;4237024;33;20062;-74
2023/06/08 06:03:33;;;;;;;5.03;2.37;;;;;;;;;;4243226;33;20099;-75
2023/06/08 06:06:00;;;;;;;3.40;1.98;;;;;;;;;;4239576;33;20956;-77
2023/06/08 06:08:26;;;;;;;2.45;2.20;;;;;;;;;;4237901;33;20054;-80
2023/06/08 06:10:54;;;;;;;6.65;2.22;;;;;;;;;;4238704;33;20405;-77
2023/06/08 06:13:27;;;;;;;6.97;2.58;;;;;;;;;;4237518;33;20054;-76
2023/06/08 06:15:54;;;;;;;3.25;1.87;;;;;;;;;;4239198;33;20042;-76
2023/06/08 06:18:21;;;;;;;5.05;2.05;;;;;;;;;;4240504;33;20504;-74
2023/06/08 06:20:50;;;;;;;4.10;1.77;;;;;;;;;;4239456;33;20034;-76
2023/06/08 06:23:16;;;;;;;5.28;2.45;;;;;;;;;;4238363;33;20072;-76
2023/06/08 06:25:43;;;;;;;10.65;2.15;;;;;;;;;;4258247;33;20042;-75
2023/06/08 06:28:09;;;;;;;4.30;2.90;;;;;;;;;;4262409;33;20083;-76
2023/06/08 06:30:36;;;;;;;6.12;2.75;;;;;;;;;;4257543;33;20594;-76
2023/06/08 06:33:02;;;;;;;2.85;2.17;;;;;;;;;;4224596;33;20068;-76
2023/06/08 06:35:28;;;;;;;5.25;2.28;;;;;;;;;;4212639;34;20035;-75
2023/06/08 06:37:55;;;;;;;9.93;2.30;;;;;;;;;;4209473;34;20215;-76
2023/06/08 06:40:21;;;;;;;8.93;2.30;;;;;;;;;;4225002;33;20304;-74
2023/06/08 06:42:47;;;;;;;8.85;3.12;;;;;;;;;;4225376;33;20034;-74
2023/06/08 06:45:18;;;;;;;5.40;2.50;;;;;;;;;;4224830;33;20424;-76
2023/06/08 06:47:44;;;;;;;7.55;2.55;;;;;;;;;;4225747;33;20099;-75
2023/06/08 06:50:10;;;;;;;2.72;2.50;;;;;;;;;;4233305;33;20034;-78
2023/06/08 06:52:37;;;;;;;6.70;2.15;;;;;;;;;;4239500;33;20054;-83
2023/06/08 06:55:03;;;;;;;3.22;2.87;;;;;;;;;;4228529;33;20050;-77
2023/06/08 06:57:31;;;;;;;4.82;2.40;;;;;;;;;;4227231;33;20047;-76
2023/06/08 06:59:58;;;;;;;3.20;2.25;;;;;;;;;;4223305;33;20211;-77
2023/06/08 07:02:28;;;;;;;4.55;2.62;;;;;;;;;;4220449;33;20051;-77
2023/06/08 07:04:55;;;;;;;14.05;2.62;;;;;;;;;;4208925;33;20039;-77
2023/06/08 07:07:23;;;;;;;3.17;2.08;;;;;;;;;;4210309;34;20069;-77
2023/06/08 07:09:49;;;;;;;6.93;2.50;;;;;;;;;;4209759;34;20123;-77
2023/06/08 07:12:16;;;;;;;3.33;2.30;;;;;;;;;;4205679;34;20047;-76
2023/06/08 07:14:42;;;;;;;4.82;2.50;;;;;;;;;;4213478;33;20102;-77
2023/06/08 07:17:08;;;;;;;3.87;2.40;;;;;;;;;;4228010;33;20420;-77
2023/06/08 07:19:34;;;;;;;2.62;2.25;;;;;;;;;;4255403;33;20069;-75
2023/06/08 07:22:01;;;;;;;3.62;2.22;;;;;;;;;;4255129;33;20046;-76
2023/06/08 07:24:27;;;;;;;2.58;2.37;;;;;;;;;;4251667;33;20232;-77
2023/06/08 07:26:53;;;;;;;4.12;2.15;;;;;;;;;;4237825;33;20213;-76
2023/06/08 07:29:20;;;;;;;7.30;3.72;;;;;;;;;;4239353;33;20398;-75
2023/06/08 07:31:46;;;;;;;2.70;2.50;;;;;;;;;;4226667;33;20058;-76
2023/06/08 07:34:12;;;;;;;8.75;2.35;;;;;;;;;;4238667;33;20516;-75
2023/06/08 07:36:38;;;;;;;4.18;2.20;;;;;;;;;;4230200;33;20106;-75
2023/06/08 07:39:04;;;;;;;7.32;2.50;;;;;;;;;;4223128;33;20086;-75
2023/06/08 07:41:31;;;;;;;4.85;2.05;;;;;;;;;;4223699;33;20506;-75
2023/06/08 07:43:57;;;;;;;6.45;2.37;;;;;;;;;;4223527;33;20320;-77
2023/06/08 07:46:24;;;;;;;3.50;2.75;;;;;;;;;;4223605;33;20163;-76
2023/06/08 07:48:50;;;;;;;3.60;2.40;;;;;;;;;;4222375;33;20061;-75
2023/06/08 07:51:16;;;;;;;14.35;2.72;;;;;;;;;;4222252;33;20117;-75
2023/06/08 07:53:42;;;;;;;5.28;2.60;;;;;;;;;;4222739;33;20039;-76
2023/06/08 07:56:08;;;;;;;13.13;2.40;;;;;;;;;;4223652;33;20077;-77
2023/06/08 07:58:41;;;;;;;2.83;2.37;;;;;;;;;;4224850;33;20074;-77
2023/06/08 08:01:07;;;;;;;7.37;2.35;;;;;;;;;;4227541;33;20486;-82
2023/06/08 08:03:35;;;;;;;6.22;2.50;;;;;;;;;;4240399;33;20120;-79
2023/06/08 08:06:01;;;;;;;7.00;2.75;;;;;;;;;;4264871;33;20059;-76
2023/06/08 08:08:27;;;;;;;5.90;2.85;;;;;;;;;;4265981;33;20089;-77
2023/06/08 08:10:54;;;;;;;2.78;2.58;;;;;;;;;;4267775;33;20419;-78
2023/06/08 08:13:20;;;;;;;4.03;2.62;;;;;;;;;;4267572;33;20059;-81
2023/06/08 08:15:46;;;;;;;3.15;2.50;;;;;;;;;;4267637;33;20395;-76
2023/06/08 08:18:15;;;;;;;5.62;2.28;;;;;;;;;;4264844;33;20072;-77
2023/06/08 08:20:42;;;;;;;13.50;2.25;;;;;;;;;;4253349;33;20079;-77
2023/06/08 08:23:08;;;;;;;6.03;3.55;;;;;;;;;;4267131;33;20433;-75
2023/06/08 08:25:35;;;;;;;4.37;2.80;;;;;;;;;;4265881;33;20080;-81
2023/06/08 08:28:01;;;;;;;9.10;3.20;;;;;;;;;;4265822;33;20384;-77
2023/06/08 08:30:27;;;;;;;8.90;3.33;;;;;;;;;;4267372;33;20572;-79
2023/06/08 08:32:53;;;;;;;6.30;2.45;;;;;;;;;;4265150;33;20045;-76
2023/06/08 08:35:20;;;;;;;5.47;2.72;;;;;;;;;;4263625;33;20068;-82
2023/06/08 08:37:46;;;;;;;2.37;2.17;;;;;;;;;;4264863;33;20171;-76
2023/06/08 08:40:13;;;;;;;3.62;2.53;;;;;;;;;;4270510;33;20856;-78
2023/06/08 08:42:43;;;;;;;6.68;2.47;;;;;;;;;;4266732;33;20080;-77
2023/06/08 08:45:13;;;;;;;3.78;3.08;;;;;;;;;;4268859;33;20053;-77
2023/06/08 08:47:39;;;;;;;4.93;2.60;;;;;;;;;;4241954;33;20054;-77
2023/06/08 08:50:06;;;;;;;6.62;2.22;;;;;;;;;;4247901;33;20046;-78
2023/06/08 08:52:37;;;;;;;3.53;2.08;;;;;;;;;;4229450;33;20973;-76
2023/06/08 08:55:04;;;;;;;3.53;2.92;;;;;;;;;;4194134;34;20060;-76
2023/06/08 08:57:31;;;;;;;2.62;2.33;;;;;;;;;;4193663;34;20048;-77
2023/06/08 08:59:58;;;;;;;6.22;5.32;;;;;;;;;;4192756;34;20104;-81
2023/06/08 09:02:25;;;;;;;7.00;3.10;;;;;;;;;;4181916;34;20085;-79
2023/06/08 09:04:52;;;;;;;8.65;4.72;;;;;;;;;;4181179;34;20517;-78
2023/06/08 09:07:21;;;;;;;7.97;5.22;;;;;;;;;;4180699;34;20228;-78
2023/06/08 09:10:07;;;;;;;2.37;2.28;;;;;;;;;;4180745;34;20432;-77
2023/06/08 09:12:39;;;;;;;2.62;2.50;;;;;;;;;;4198900;34;20053;-74
2023/06/08 09:15:07;;;;;;;20.20;9.23;;;;;;;;;;4185917;34;20060;-74
2023/06/08 09:17:40;;;;;;;9.93;3.87;;;;;;;;;;4187163;34;20036;-74
2023/06/08 09:20:11;;;;;;;2.62;2.42;;;;;;;;;;4214972;34;20040;-74
2023/06/08 09:22:38;;;;;;;10.77;3.55;;;;;;;;;;4214729;34;20063;-74
2023/06/08 09:25:05;;;;;;;3.62;2.35;;;;;;;;;;4230219;33;20064;-74
2023/06/08 09:27:38;;;;;;;3.37;2.42;;;;;;;;;;4222321;33;20501;-75
2023/06/08 09:30:21;;;;;;;4.28;2.17;;;;;;;;;;4225276;33;20050;-75
2023/06/08 09:32:48;;;;;;;2.58;2.30;;;;;;;;;;4232542;33;20135;-74
2023/06/08 09:35:21;;;;;;;6.43;2.70;;;;;;;;;;4256973;33;20057;-76
2023/06/08 09:37:49;;;;;;;3.10;2.62;;;;;;;;;;4250229;33;20089;-74
2023/06/08 09:40:20;;;;;;;2.67;2.45;;;;;;;;;;4250212;33;20087;-74
2023/06/08 09:42:50;;;;;;;3.70;2.10;;;;;;;;;;4249269;33;20092;-73
2023/06/08 09:45:20;;;;;;;3.87;2.50;;;;;;;;;;4239855;33;20054;-75
2023/06/08 09:47:47;;;;;;;5.10;2.33;;;;;;;;;;4247846;33;20103;-75
2023/06/08 09:50:19;;;;;;;8.30;2.70;;;;;;;;;;4250329;33;20285;-74
2023/06/08 09:52:47;;;;;;;10.90;3.20;;;;;;;;;;4249721;33;20563;-74
2023/06/08 09:55:15;;;;;;;5.18;2.40;;;;;;;;;;4250678;33;20056;-74
2023/06/08 09:57:41;;;;;;;4.87;3.55;;;;;;;;;;4249377;33;20046;-76
2023/06/08 10:00:16;;;;;;;5.20;2.83;;;;;;;;;;4249938;33;20159;-74
2023/06/08 10:02:53;;;;;;;16.92;2.95;;;;;;;;;;4249560;33;20050;-74
2023/06/08 10:05:22;;;;;;;5.93;2.50;;;;;;;;;;4251086;33;20042;-75
2023/06/08 10:07:50;;;;;;;4.07;3.10;;;;;;;;;;4248578;33;20558;-75
2023/06/08 10:10:19;;;;;;;3.70;2.78;;;;;;;;;;4249458;33;20616;-74
2023/06/08 10:12:46;;;;;;;5.28;3.58;;;;;;;;;;4250908;33;20064;-74
2023/06/08 10:15:13;;;;;;;3.45;2.78;;;;;;;;;;4250719;33;20054;-74
2023/06/08 10:17:40;;;;;;;2.62;2.42;;;;;;;;;;4247376;33;20399;-75
2023/06/08 10:20:06;;;;;;;3.55;2.65;;;;;;;;;;4251180;33;20050;-74
2023/06/08 10:22:33;;;;;;;5.25;3.17;;;;;;;;;;4249363;33;20064;-74
2023/06/08 10:24:59;;;;;;;10.95;3.87;;;;;;;;;;4250820;33;20476;-75
2023/06/08 10:27:29;;;;;;;4.62;3.55;;;;;;;;;;4247001;33;20050;-74
2023/06/08 10:30:03;;;;;;;6.12;3.92;;;;;;;;;;4220902;33;20039;-77
2023/06/08 10:32:30;;;;;;;7.45;3.22;;;;;;;;;;4222681;34;20059;-76
2023/06/08 10:34:57;;;;;;;3.65;2.55;;;;;;;;;;4254782;33;20457;-76
2023/06/08 10:37:30;;;;;;;8.40;2.60;;;;;;;;;;4261432;33;20075;-76
2023/06/08 10:39:58;;;;;;;9.18;2.58;;;;;;;;;;4251847;33;20030;-75
2023/06/08 10:42:24;;;;;;;11.27;3.05;;;;;;;;;;4223305;33;20051;-76
2023/06/08 10:44:54;;;;;;;7.12;2.67;;;;;;;;;;4235350;33;20047;-77
2023/06/08 10:47:20;;;;;;;10.73;3.17;;;;;;;;;;4237756;33;20635;-76
2023/06/08 10:49:53;;;;;;;6.87;3.12;;;;;;;;;;4236578;33;20105;-77
2023/06/08 10:52:22;;;;;;;20.80;10.93;;;;;;;;;;4243813;33;20798;-76
2023/06/08 10:54:48;;;;;;;4.57;2.65;;;;;;;;;;4245330;33;20035;-76
2023/06/08 10:57:34;;;;;;;4.80;2.87;;;;;;;;;;4244446;33;20429;-76
2023/06/08 11:00:00;;;;;;;14.02;3.00;;;;;;;;;;4247935;33;20068;-77
2023/06/08 11:02:29;;;;;;;3.62;2.85;;;;;;;;;;4408718;28;20050;-77
2023/06/08 11:04:56;;;;;;;7.65;2.75;;;;;;;;;;4237816;33;20093;-77
2023/06/08 11:07:25;;;;;;;2.65;2.47;;;;;;;;;;4238500;33;20072;-77
2023/06/08 11:09:51;;;;;;;5.20;2.60;;;;;;;;;;4223757;33;20259;-77
2023/06/08 11:12:19;;;;;;;6.18;2.85;;;;;;;;;;4223650;33;20055;-77
2023/06/08 11:14:45;;;;;;;6.07;2.65;;;;;;;;;;4224416;33;20043;-77
2023/06/08 11:17:12;;;;;;;8.13;2.60;;;;;;;;;;4224662;33;20043;-77
2023/06/08 11:19:37;;;;;;;5.97;3.25;;;;;;;;;;4224740;34;20106;-77
2023/06/08 11:22:04;;;;;;;3.90;2.62;;;;;;;;;;4222620;33;20053;-74
2023/06/08 11:24:30;;;;;;;3.05;2.37;;;;;;;;;;4246469;33;20046;-74
2023/06/08 11:27:00;;;;;;;3.28;2.22;;;;;;;;;;4238590;33;20070;-77
2023/06/08 11:29:26;;;;;;;5.07;2.53;;;;;;;;;;4238035;33;20433;-74
2023/06/08 11:31:53;;;;;;;7.80;3.03;;;;;;;;;;4237595;33;20073;-76
2023/06/08 11:34:20;;;;;;;4.50;2.55;;;;;;;;;;4236576;33;20470;-76
2023/06/08 11:36:49;;;;;;;4.12;2.28;;;;;;;;;;4237998;33;20529;-75
2023/06/08 11:39:15;;;;;;;5.78;2.22;;;;;;;;;;4238343;33;20047;-75
2023/06/08 11:41:46;;;;;;;4.68;2.58;;;;;;;;;;4251847;33;20117;-75
2023/06/08 11:44:13;;;;;;;3.47;2.75;;;;;;;;;;4251169;33;20079;-74
2023/06/08 11:46:40;;;;;;;9.25;3.78;;;;;;;;;;4251453;33;20057;-75
2023/06/08 11:49:06;;;;;;;2.53;2.30;;;;;;;;;;4251690;33;20464;-75
2023/06/08 11:51:33;;;;;;;2.67;2.15;;;;;;;;;;4251920;33;20455;-75
2023/06/08 11:53:59;;;;;;;3.78;3.28;;;;;;;;;;4251118;33;20233;-76
2023/06/08 11:56:29;;;;;;;4.95;2.60;;;;;;;;;;4251590;33;20054;-75
2023/06/08 11:58:57;;;;;;;8.82;2.53;;;;;;;;;;4277526;33;20348;-76
2023/06/08 12:01:23;;;;;;;2.72;2.50;;;;;;;;;;4280402;33;20057;-75
2023/06/08 12:03:50;;;;;;;4.07;2.62;;;;;;;;;;4280436;33;20063;-75
2023/06/08 12:06:16;;;;;;;9.98;3.00;;;;;;;;;;4279287;33;20087;-76
2023/06/08 12:08:42;;;;;;;2.55;2.35;;;;;;;;;;4280072;33;20098;-75
2023/06/08 12:11:09;;;;;;;2.83;2.60;;;;;;;;;;4280472;33;20071;-75
2023/06/08 12:13:37;;;;;;;3.45;2.28;;;;;;;;;;4257864;33;20034;-75
2023/06/08 12:16:08;;;;;;;3.37;2.42;;;;;;;;;;4252286;33;20062;-75
2023/06/08 12:18:41;;;;;;;2.75;2.42;;;;;;;;;;4250314;33;20037;-75
2023/06/08 12:21:09;;;;;;;2.42;2.00;;;;;;;;;;4251670;33;20042;-75
2023/06/08 12:23:36;;;;;;;2.47;2.28;;;;;;;;;;4250628;33;20038;-75
2023/06/08 12:26:02;;;;;;;6.62;3.37;;;;;;;;;;4222410;33;20078;-75
2023/06/08 12:28:28;;;;;;;3.35;2.85;;;;;;;;;;4193933;34;20382;-75
2023/06/08 12:30:56;;;;;;;5.47;2.55;;;;;;;;;;4195301;34;20059;-75
2023/06/08 12:33:22;;;;;;;6.80;4.68;;;;;;;;;;4195392;34;20069;-76
2023/06/08 12:35:49;;;;;;;8.93;3.08;;;;;;;;;;4195425;34;20063;-77
2023/06/08 12:38:16;;;;;;;11.82;2.60;;;;;;;;;;4194528;34;20043;-75
2023/06/08 12:40:47;;;;;;;3.08;2.60;;;;;;;;;;4192642;34;20085;-76
2023/06/08 12:43:15;;;;;;;3.95;3.10;;;;;;;;;;4193671;34;20061;-76
2023/06/08 12:45:42;;;;;;;3.10;2.10;;;;;;;;;;4193989;34;20108;-76
2023/06/08 12:48:08;;;;;;;6.18;2.80;;;;;;;;;;4194500;34;20077;-75
2023/06/08 12:50:34;;;;;;;7.85;3.28;;;;;;;;;;4193551;34;20127;-76
2023/06/08 12:53:01;;;;;;;3.40;2.80;;;;;;;;;;4193577;34;20199;-75
2023/06/08 12:55:27;;;;;;;6.95;2.90;;;;;;;;;;4180206;34;20676;-76
2023/06/08 12:57:53;;;;;;;2.65;2.40;;;;;;;;;;4180336;34;20495;-75
2023/06/08 13:00:21;;;;;;;4.40;2.60;;;;;;;;;;4192309;34;20051;-76
2023/06/08 13:02:47;;;;;;;5.15;2.70;;;;;;;;;;4196864;34;20441;-75
2023/06/08 13:05:14;;;;;;;6.80;3.00;;;;;;;;;;4222802;33;20482;-76
2023/06/08 13:07:40;;;;;;;4.10;2.95;;;;;;;;;;4222056;34;20039;-76
2023/06/08 13:10:13;;;;;;;5.07;3.62;;;;;;;;;;4222034;33;20486;-76
2023/06/08 13:12:41;;;;;;;3.87;2.78;;;;;;;;;;4220638;34;20046;-76
2023/06/08 13:15:08;;;;;;;8.40;2.87;;;;;;;;;;4219216;34;20061;-76
2023/06/08 13:17:34;;;;;;;7.12;2.75;;;;;;;;;;4208809;34;20107;-76
2023/06/08 13:20:00;;;;;;;3.83;2.60;;;;;;;;;;4208620;34;20090;-75
2023/06/08 13:22:27;;;;;;;3.37;2.92;;;;;;;;;;4207325;34;20075;-76
2023/06/08 13:24:54;;;;;;;4.72;3.62;;;;;;;;;;4196669;34;20060;-76
2023/06/08 13:27:20;;;;;;;3.37;2.80;;;;;;;;;;4215901;34;20223;-76
2023/06/08 13:29:49;;;;;;;3.53;3.20;;;;;;;;;;4222258;34;20502;-76
2023/06/08 13:32:16;;;;;;;3.87;2.72;;;;;;;;;;4222697;34;20023;-75
2023/06/08 13:34:43;;;;;;;3.10;2.65;;;;;;;;;;4222400;34;20073;-75
2023/06/08 13:37:09;;;;;;;5.45;2.50;;;;;;;;;;4220423;34;20076;-76
2023/06/08 13:39:35;;;;;;;3.35;2.87;;;;;;;;;;4222715;34;20357;-76
2023/06/08 13:42:04;;;;;;;5.25;2.70;;;;;;;;;;4222338;34;20119;-77
2023/06/08 13:44:31;;;;;;;6.30;3.22;;;;;;;;;;4222040;34;20073;-76
2023/06/08 13:46:59;;;;;;;5.72;2.42;;;;;;;;;;4219805;34;20053;-76
2023/06/08 13:49:25;;;;;;;6.97;2.60;;;;;;;;;;4247223;33;20065;-76
2023/06/08 13:51:52;;;;;;;2.83;2.53;;;;;;;;;;4252698;33;20075;-76
2023/06/08 13:54:18;;;;;;;6.32;4.10;;;;;;;;;;4252128;33;20128;-77
2023/06/08 13:56:51;;;;;;;3.25;2.70;;;;;;;;;;4253062;33;20050;-77
2023/06/08 13:59:17;;;;;;;15.50;3.17;;;;;;;;;;4248694;33;20067;-77
2023/06/08 14:01:43;;;;;;;6.22;2.75;;;;;;;;;;4250468;33;20374;-77
2023/06/08 14:04:10;;;;;;;6.70;2.65;;;;;;;;;;4250843;33;20923;-76
2023/06/08 14:06:37;;;;;;;3.55;2.70;;;;;;;;;;4248594;33;20061;-76
2023/06/08 14:09:04;;;;;;;10.32;3.00;;;;;;;;;;4250850;33;20046;-76
2023/06/08 14:11:31;;;;;;;3.90;2.87;;;;;;;;;;4247664;33;20038;-77
2023/06/08 14:13:57;;;;;;;9.65;4.55;;;;;;;;;;4250602;33;20528;-76
2023/06/08 14:16:27;;;;;;;8.75;2.47;;;;;;;;;;4251044;33;20085;-76
2023/06/08 14:18:53;;;;;;;8.98;2.80;;;;;;;;;;4250278;33;20079;-76
2023/06/08 14:21:20;;;;;;;3.50;2.33;;;;;;;;;;4219950;33;20847;-76
2023/06/08 14:23:46;;;;;;;7.93;2.58;;;;;;;;;;4224812;34;20104;-76
2023/06/08 14:26:14;;;;;;;5.40;2.80;;;;;;;;;;4223884;34;20055;-76
2023/06/08 14:28:40;;;;;;;8.52;3.75;;;;;;;;;;4224687;33;20047;-75
2023/06/08 14:31:06;;;;;;;3.12;2.83;;;;;;;;;;4235985;33;20458;-76
2023/06/08 14:33:33;;;;;;;14.38;2.90;;;;;;;;;;4238796;33;20190;-76
2023/06/08 14:35:59;;;;;;;3.40;3.12;;;;;;;;;;4226773;33;20050;-76
2023/06/08 14:38:25;;;;;;;5.97;2.60;;;;;;;;;;4225423;33;20039;-76
2023/06/08 14:40:51;;;;;;;4.12;2.67;;;;;;;;;;4225132;33;20493;-76
2023/06/08 14:43:24;;;;;;;3.50;2.72;;;;;;;;;;4225116;33;20058;-76
2023/06/08 14:45:56;;;;;;;2.87;2.53;;;;;;;;;;4224374;33;20064;-75
2023/06/08 14:48:23;;;;;;;2.70;2.50;;;;;;;;;;4221918;34;20457;-75
2023/06/08 14:50:49;;;;;;;12.27;3.20;;;;;;;;;;4238182;33;20073;-76
2023/06/08 14:53:15;;;;;;;8.73;2.90;;;;;;;;;;4233213;33;20072;-76
2023/06/08 14:55:41;;;;;;;7.30;3.87;;;;;;;;;;4236550;33;20038;-75
2023/06/08 14:58:07;;;;;;;4.30;3.15;;;;;;;;;;4239055;33;20076;-76
2023/06/08 15:00:33;;;;;;;16.90;4.15;;;;;;;;;;4241311;33;20809;-76
2023/06/08 15:03:00;;;;;;;6.50;2.62;;;;;;;;;;4250448;33;20070;-76
2023/06/08 15:05:26;;;;;;;6.35;2.22;;;;;;;;;;4254666;33;20046;-76
2023/06/08 15:07:52;;;;;;;3.87;3.22;;;;;;;;;;4253335;33;20086;-76
2023/06/08 15:10:18;;;;;;;8.32;3.30;;;;;;;;;;4254343;33;20051;-76
2023/06/08 15:12:45;;;;;;;8.45;3.35;;;;;;;;;;4254401;33;20045;-76
2023/06/08 15:15:10;;;;;;;6.85;2.80;;;;;;;;;;4254685;33;20068;-76
2023/06/08 15:17:37;;;;;;;5.28;3.25;;;;;;;;;;4253774;33;20050;-78
2023/06/08 15:20:06;;;;;;;4.62;2.75;;;;;;;;;;4254375;33;20412;-75
2023/06/08 15:22:33;;;;;;;5.82;3.08;;;;;;;;;;4255416;33;20078;-75
2023/06/08 15:24:59;;;;;;;18.60;3.42;;;;;;;;;;4253156;33;20064;-76
2023/06/08 15:27:27;;;;;;;2.55;2.45;;;;;;;;;;4254604;33;20049;-77
2023/06/08 15:29:53;;;;;;;4.28;3.12;;;;;;;;;;4252802;33;20052;-81
2023/06/08 15:32:20;;;;;;;4.22;3.83;;;;;;;;;;4254096;33;20094;-77
2023/06/08 15:34:46;;;;;;;3.12;2.92;;;;;;;;;;4253432;33;20101;-76
2023/06/08 15:37:12;;;;;;;6.05;2.87;;;;;;;;;;4254856;33;20496;-76
2023/06/08 15:39:38;;;;;;;3.80;2.55;;;;;;;;;;4254471;33;20050;-76
2023/06/08 15:42:06;;;;;;;3.80;2.55;;;;;;;;;;4252777;33;20046;-76
2023/06/08 15:44:31;;;;;;;6.65;3.55;;;;;;;;;;4252320;33;20111;-76
2023/06/08 15:46:58;;;;;;;4.55;2.70;;;;;;;;;;4251110;33;20050;-76
2023/06/08 15:49:24;;;;;;;6.95;3.47;;;;;;;;;;4228826;33;20170;-77
2023/06/08 15:51:50;;;;;;;3.10;2.90;;;;;;;;;;4231042;33;20407;-76
2023/06/08 15:54:16;;;;;;;8.90;2.72;;;;;;;;;;4228493;33;20047;-76
2023/06/08 15:56:43;;;;;;;2.85;2.65;;;;;;;;;;4212645;34;20313;-77
2023/06/08 15:59:08;;;;;;;9.02;2.60;;;;;;;;;;4210097;34;20035;-76
2023/06/08 16:01:35;;;;;;;7.15;4.75;;;;;;;;;;4181161;34;20063;-77
2023/06/08 16:04:01;;;;;;;3.08;2.70;;;;;;;;;;4180741;34;20496;-77
2023/06/08 16:06:28;;;;;;;7.70;4.40;;;;;;;;;;4181404;34;20074;-77
2023/06/08 16:08:54;;;;;;;9.43;2.60;;;;;;;;;;4182353;34;20059;-77
2023/06/08 16:11:21;;;;;;;4.35;2.62;;;;;;;;;;4182526;34;20382;-77
2023/06/08 16:13:49;;;;;;;6.35;2.90;;;;;;;;;;4182327;34;20471;-76
2023/06/08 16:16:15;;;;;;;17.95;2.87;;;;;;;;;;4165581;34;20078;-75
2023/06/08 16:18:41;;;;;;;7.55;4.40;;;;;;;;;;4168762;34;20324;-76
2023/06/08 16:21:08;;;;;;;3.47;2.87;;;;;;;;;;4154920;34;20082;-75
2023/06/08 16:23:34;;;;;;;4.15;3.45;;;;;;;;;;4154624;34;20089;-76
2023/06/08 16:26:02;;;;;;;4.50;2.80;;;;;;;;;;4125924;34;20044;-76
2023/06/08 16:28:30;;;;;;;3.47;3.05;;;;;;;;;;4148439;34;20045;-76
2023/06/08 16:30:57;;;;;;;4.07;2.60;;;;;;;;;;4154770;34;20395;-75
2023/06/08 16:33:23;;;;;;;3.65;2.67;;;;;;;;;;4154573;34;20837;-74
2023/06/08 16:35:49;;;;;;;3.42;2.08;;;;;;;;;;4153926;34;20180;-77
2023/06/08 16:38:15;;;;;;;2.70;2.50;;;;;;;;;;4153445;34;20664;-76
2023/06/08 16:40:42;;;;;;;10.73;2.60;;;;;;;;;;4154704;34;20082;-75